sensor_id;sensor_type;location;lat;lon;timestamp;P1;durP1;ratioP1;P2;durP2;ratioP2
17917;SDS011;9084;50.956;3.106;2023-07-20T00:00:41;8.52;;;4.88;;
17917;SDS011;9084;50.956;3.106;2023-07-20T00:03:12;6.90;;;4.55;;
17917;SDS011;9084;50.956;3.106;2023-07-20T00:05:44;6.97;;;4.65;;
17917;SDS011;9084;50.956;3.106;2023-07-20T00:08:10;7.47;;;5.00;;
17917;SDS011;9084;50.956;3.106;2023-07-20T00:10:36;9.20;;;5.07;;
17917;SDS011;9084;50.956;3.106;2023-07-20T00:13:02;9.43;;;5.80;;
17917;SDS011;9084;50.956;3.106;2023-07-20T00:15:30;7.47;;;5.45;;
17917;SDS011;9084;50.956;3.106;2023-07-20T00:17:58;8.50;;;5.47;;
17917;SDS011;9084;50.956;3.106;2023-07-20T00:20:26;7.38;;;5.13;;
17917;SDS011;9084;50.956;3.106;2023-07-20T00:22:54;9.20;;;5.43;;
17917;SDS011;9084;50.956;3.106;2023-07-20T00:25:20;9.63;;;5.65;;
17917;SDS011;9084;50.956;3.106;2023-07-20T00:27:45;9.68;;;5.57;;
17917;SDS011;9084;50.956;3.106;2023-07-20T00:30:11;6.95;;;5.60;;
17917;SDS011;9084;50.956;3.106;2023-07-20T00:32:37;7.57;;;5.10;;
17917;SDS011;9084;50.956;3.106;2023-07-20T00:35:03;9.77;;;4.70;;
17917;SDS011;9084;50.956;3.106;2023-07-20T00:37:29;7.65;;;4.78;;
17917;SDS011;9084;50.956;3.106;2023-07-20T00:39:55;10.27;;;5.40;;
17917;SDS011;9084;50.956;3.106;2023-07-20T00:42:20;5.30;;;4.55;;
17917;SDS011;9084;50.956;3.106;2023-07-20T00:44:51;7.93;;;5.20;;
17917;SDS011;9084;50.956;3.106;2023-07-20T00:47:18;7.55;;;4.93;;
17917;SDS011;9084;50.956;3.106;2023-07-20T00:49:49;9.23;;;5.45;;
17917;SDS011;9084;50.956;3.106;2023-07-20T00:52:18;8.80;;;5.35;;
17917;SDS011;9084;50.956;3.106;2023-07-20T00:54:47;9.85;;;5.55;;
17917;SDS011;9084;50.956;3.106;2023-07-20T00:57:14;7.97;;;4.70;;
17917;SDS011;9084;50.956;3.106;2023-07-20T00:59:40;9.25;;;6.05;;
17917;SDS011;9084;50.956;3.106;2023-07-20T01:02:06;6.90;;;5.55;;
17917;SDS011;9084;50.956;3.106;2023-07-20T01:04:32;9.90;;;5.85;;
17917;SDS011;9084;50.956;3.106;2023-07-20T01:09:39;10.65;;;6.03;;
17917;SDS011;9084;50.956;3.106;2023-07-20T01:12:12;8.52;;;5.18;;
17917;SDS011;9084;50.956;3.106;2023-07-20T01:14:43;8.93;;;5.70;;
17917;SDS011;9084;50.956;3.106;2023-07-20T01:17:12;6.88;;;5.05;;
17917;SDS011;9084;50.956;3.106;2023-07-20T01:19:38;8.07;;;5.70;;
17917;SDS011;9084;50.956;3.106;2023-07-20T01:32:47;8.35;;;5.10;;
17917;SDS011;9084;50.956;3.106;2023-07-20T01:35:13;6.63;;;4.97;;
17917;SDS011;9084;50.956;3.106;2023-07-20T01:37:44;6.78;;;5.63;;
17917;SDS011;9084;50.956;3.106;2023-07-20T01:40:12;6.88;;;5.15;;
17917;SDS011;9084;50.956;3.106;2023-07-20T01:42:47;8.00;;;6.05;;
17917;SDS011;9084;50.956;3.106;2023-07-20T01:45:14;6.10;;;5.50;;
17917;SDS011;9084;50.956;3.106;2023-07-20T01:47:39;5.65;;;4.95;;
17917;SDS011;9084;50.956;3.106;2023-07-20T01:50:06;7.78;;;4.88;;
17917;SDS011;9084;50.956;3.106;2023-07-20T01:52:34;5.30;;;4.63;;
17917;SDS011;9084;50.956;3.106;2023-07-20T01:55:02;5.93;;;4.55;;
17917;SDS011;9084;50.956;3.106;2023-07-20T01:57:29;8.10;;;5.20;;
17917;SDS011;9084;50.956;3.106;2023-07-20T01:59:55;5.95;;;5.30;;
17917;SDS011;9084;50.956;3.106;2023-07-20T02:02:20;5.18;;;4.70;;
17917;SDS011;9084;50.956;3.106;2023-07-20T02:04:48;6.38;;;4.85;;
17917;SDS011;9084;50.956;3.106;2023-07-20T02:07:13;7.63;;;5.18;;
17917;SDS011;9084;50.956;3.106;2023-07-20T02:09:39;5.80;;;4.93;;
17917;SDS011;9084;50.956;3.106;2023-07-20T02:12:06;6.38;;;4.80;;
17917;SDS011;9084;50.956;3.106;2023-07-20T02:14:35;6.15;;;4.95;;
17917;SDS011;9084;50.956;3.106;2023-07-20T02:17:04;4.82;;;4.18;;
17917;SDS011;9084;50.956;3.106;2023-07-20T02:19:30;5.95;;;4.30;;
17917;SDS011;9084;50.956;3.106;2023-07-20T02:21:57;5.38;;;4.88;;
17917;SDS011;9084;50.956;3.106;2023-07-20T02:24:23;7.03;;;4.80;;
17917;SDS011;9084;50.956;3.106;2023-07-20T02:26:50;4.50;;;4.10;;
17917;SDS011;9084;50.956;3.106;2023-07-20T02:29:15;6.32;;;5.05;;
17917;SDS011;9084;50.956;3.106;2023-07-20T02:31:41;6.03;;;5.22;;
17917;SDS011;9084;50.956;3.106;2023-07-20T02:34:09;6.35;;;4.70;;
17917;SDS011;9084;50.956;3.106;2023-07-20T02:36:34;5.47;;;4.78;;
17917;SDS011;9084;50.956;3.106;2023-07-20T02:39:03;6.72;;;4.63;;
17917;SDS011;9084;50.956;3.106;2023-07-20T02:41:32;5.95;;;4.35;;
17917;SDS011;9084;50.956;3.106;2023-07-20T02:44:03;5.63;;;5.13;;
17917;SDS011;9084;50.956;3.106;2023-07-20T02:46:30;5.55;;;4.35;;
17917;SDS011;9084;50.956;3.106;2023-07-20T02:48:56;8.38;;;4.72;;
17917;SDS011;9084;50.956;3.106;2023-07-20T02:51:24;5.38;;;4.18;;
17917;SDS011;9084;50.956;3.106;2023-07-20T02:53:50;4.95;;;4.55;;
17917;SDS011;9084;50.956;3.106;2023-07-20T02:56:20;5.05;;;4.55;;
17917;SDS011;9084;50.956;3.106;2023-07-20T02:58:45;5.25;;;4.32;;
17917;SDS011;9084;50.956;3.106;2023-07-20T03:01:11;7.50;;;4.95;;
17917;SDS011;9084;50.956;3.106;2023-07-20T03:03:42;5.20;;;4.80;;
17917;SDS011;9084;50.956;3.106;2023-07-20T03:06:11;5.30;;;4.78;;
17917;SDS011;9084;50.956;3.106;2023-07-20T03:08:41;5.20;;;4.70;;
17917;SDS011;9084;50.956;3.106;2023-07-20T03:11:16;5.25;;;4.75;;
17917;SDS011;9084;50.956;3.106;2023-07-20T03:13:45;5.95;;;4.70;;
17917;SDS011;9084;50.956;3.106;2023-07-20T03:16:12;5.05;;;4.55;;
17917;SDS011;9084;50.956;3.106;2023-07-20T03:18:41;5.22;;;4.22;;
17917;SDS011;9084;50.956;3.106;2023-07-20T03:21:09;5.95;;;4.72;;
17917;SDS011;9084;50.956;3.106;2023-07-20T03:23:36;6.22;;;4.97;;
17917;SDS011;9084;50.956;3.106;2023-07-20T03:26:05;6.00;;;4.57;;
17917;SDS011;9084;50.956;3.106;2023-07-20T03:28:36;5.50;;;5.00;;
17917;SDS011;9084;50.956;3.106;2023-07-20T03:31:03;5.15;;;4.75;;
17917;SDS011;9084;50.956;3.106;2023-07-20T03:33:29;6.38;;;4.82;;
17917;SDS011;9084;50.956;3.106;2023-07-20T03:35:58;5.63;;;4.95;;
17917;SDS011;9084;50.956;3.106;2023-07-20T03:38:24;5.70;;;4.88;;
17917;SDS011;9084;50.956;3.106;2023-07-20T03:43:23;5.28;;;4.78;;
17917;SDS011;9084;50.956;3.106;2023-07-20T03:45:50;5.25;;;4.78;;
17917;SDS011;9084;50.956;3.106;2023-07-20T03:48:17;5.70;;;5.20;;
17917;SDS011;9084;50.956;3.106;2023-07-20T03:50:47;5.55;;;4.75;;
17917;SDS011;9084;50.956;3.106;2023-07-20T03:53:16;6.28;;;5.65;;
17917;SDS011;9084;50.956;3.106;2023-07-20T03:55:45;5.55;;;5.05;;
17917;SDS011;9084;50.956;3.106;2023-07-20T03:58:14;5.20;;;4.70;;
17917;SDS011;9084;50.956;3.106;2023-07-20T04:00:49;5.97;;;5.43;;
17917;SDS011;9084;50.956;3.106;2023-07-20T04:03:16;5.88;;;4.90;;
17917;SDS011;9084;50.956;3.106;2023-07-20T04:05:45;6.68;;;5.30;;
17917;SDS011;9084;50.956;3.106;2023-07-20T04:08:14;6.65;;;5.20;;
17917;SDS011;9084;50.956;3.106;2023-07-20T04:10:42;5.88;;;5.00;;
17917;SDS011;9084;50.956;3.106;2023-07-20T04:13:08;5.68;;;5.18;;
17917;SDS011;9084;50.956;3.106;2023-07-20T04:15:34;5.35;;;4.85;;
17917;SDS011;9084;50.956;3.106;2023-07-20T04:18:00;6.35;;;5.53;;
17917;SDS011;9084;50.956;3.106;2023-07-20T04:20:26;6.20;;;5.70;;
17917;SDS011;9084;50.956;3.106;2023-07-20T04:22:51;6.00;;;5.13;;
17917;SDS011;9084;50.956;3.106;2023-07-20T04:25:17;5.80;;;5.10;;
17917;SDS011;9084;50.956;3.106;2023-07-20T04:27:46;5.10;;;4.70;;
17917;SDS011;9084;50.956;3.106;2023-07-20T04:30:13;5.05;;;4.65;;
17917;SDS011;9084;50.956;3.106;2023-07-20T04:32:45;5.10;;;4.70;;
17917;SDS011;9084;50.956;3.106;2023-07-20T04:35:16;5.00;;;4.65;;
17917;SDS011;9084;50.956;3.106;2023-07-20T04:37:45;5.28;;;4.88;;
17917;SDS011;9084;50.956;3.106;2023-07-20T04:40:15;5.18;;;4.38;;
17917;SDS011;9084;50.956;3.106;2023-07-20T04:42:41;5.07;;;4.57;;
17917;SDS011;9084;50.956;3.106;2023-07-20T04:45:11;4.95;;;4.60;;
17917;SDS011;9084;50.956;3.106;2023-07-20T04:47:37;4.93;;;4.60;;
17917;SDS011;9084;50.956;3.106;2023-07-20T04:50:02;5.50;;;5.10;;
17917;SDS011;9084;50.956;3.106;2023-07-20T04:52:28;5.68;;;5.18;;
17917;SDS011;9084;50.956;3.106;2023-07-20T04:54:57;5.90;;;5.40;;
17917;SDS011;9084;50.956;3.106;2023-07-20T04:57:23;5.20;;;4.75;;
17917;SDS011;9084;50.956;3.106;2023-07-20T04:59:49;6.13;;;4.97;;
17917;SDS011;9084;50.956;3.106;2023-07-20T05:02:14;5.22;;;4.80;;
17917;SDS011;9084;50.956;3.106;2023-07-20T05:04:40;5.32;;;4.80;;
17917;SDS011;9084;50.956;3.106;2023-07-20T05:07:08;5.22;;;4.80;;
17917;SDS011;9084;50.956;3.106;2023-07-20T05:09:33;5.47;;;5.07;;
17917;SDS011;9084;50.956;3.106;2023-07-20T05:12:01;4.75;;;4.35;;
17917;SDS011;9084;50.956;3.106;2023-07-20T05:14:27;5.95;;;5.38;;
17917;SDS011;9084;50.956;3.106;2023-07-20T05:16:53;5.68;;;5.18;;
17917;SDS011;9084;50.956;3.106;2023-07-20T05:19:18;6.07;;;5.57;;
17917;SDS011;9084;50.956;3.106;2023-07-20T05:21:46;5.10;;;4.70;;
17917;SDS011;9084;50.956;3.106;2023-07-20T05:24:14;5.00;;;4.60;;
17917;SDS011;9084;50.956;3.106;2023-07-20T05:26:45;12.30;;;5.68;;
17917;SDS011;9084;50.956;3.106;2023-07-20T05:29:10;5.72;;;5.15;;
17917;SDS011;9084;50.956;3.106;2023-07-20T05:31:36;5.20;;;4.80;;
17917;SDS011;9084;50.956;3.106;2023-07-20T05:34:06;5.57;;;5.07;;
17917;SDS011;9084;50.956;3.106;2023-07-20T05:36:34;5.15;;;4.75;;
17917;SDS011;9084;50.956;3.106;2023-07-20T05:39:01;5.90;;;5.35;;
17917;SDS011;9084;50.956;3.106;2023-07-20T05:41:27;5.30;;;5.00;;
17917;SDS011;9084;50.956;3.106;2023-07-20T05:43:53;5.82;;;5.32;;
17917;SDS011;9084;50.956;3.106;2023-07-20T05:46:23;4.65;;;4.25;;
17917;SDS011;9084;50.956;3.106;2023-07-20T05:48:50;5.70;;;5.30;;
17917;SDS011;9084;50.956;3.106;2023-07-20T05:51:20;4.70;;;4.32;;
17917;SDS011;9084;50.956;3.106;2023-07-20T05:53:46;5.35;;;4.95;;
17917;SDS011;9084;50.956;3.106;2023-07-20T05:56:14;4.85;;;4.45;;
17917;SDS011;9084;50.956;3.106;2023-07-20T05:58:39;5.00;;;4.60;;
17917;SDS011;9084;50.956;3.106;2023-07-20T06:01:07;5.47;;;5.07;;
17917;SDS011;9084;50.956;3.106;2023-07-20T06:03:33;5.25;;;4.88;;
17917;SDS011;9084;50.956;3.106;2023-07-20T06:06:02;4.53;;;4.15;;
17917;SDS011;9084;50.956;3.106;2023-07-20T06:08:29;4.88;;;4.57;;
17917;SDS011;9084;50.956;3.106;2023-07-20T06:10:55;4.93;;;4.60;;
17917;SDS011;9084;50.956;3.106;2023-07-20T06:13:23;4.38;;;3.97;;
17917;SDS011;9084;50.956;3.106;2023-07-20T06:15:51;4.28;;;3.97;;
17917;SDS011;9084;50.956;3.106;2023-07-20T06:18:17;4.50;;;4.10;;
17917;SDS011;9084;50.956;3.106;2023-07-20T06:20:52;4.50;;;4.10;;
17917;SDS011;9084;50.956;3.106;2023-07-20T06:23:20;3.80;;;3.50;;
17917;SDS011;9084;50.956;3.106;2023-07-20T06:25:46;3.17;;;2.97;;
17917;SDS011;9084;50.956;3.106;2023-07-20T06:28:14;3.33;;;3.08;;
17917;SDS011;9084;50.956;3.106;2023-07-20T06:30:42;3.22;;;2.97;;
17917;SDS011;9084;50.956;3.106;2023-07-20T06:33:12;2.78;;;2.58;;
17917;SDS011;9084;50.956;3.106;2023-07-20T06:35:43;2.70;;;2.50;;
17917;SDS011;9084;50.956;3.106;2023-07-20T06:38:09;2.20;;;2.10;;
17917;SDS011;9084;50.956;3.106;2023-07-20T06:40:34;2.70;;;2.50;;
17917;SDS011;9084;50.956;3.106;2023-07-20T06:43:00;2.50;;;2.33;;
17917;SDS011;9084;50.956;3.106;2023-07-20T06:45:28;3.13;;;2.92;;
17917;SDS011;9084;50.956;3.106;2023-07-20T06:47:57;2.90;;;2.70;;
17917;SDS011;9084;50.956;3.106;2023-07-20T06:50:25;3.40;;;3.10;;
17917;SDS011;9084;50.956;3.106;2023-07-20T06:52:53;2.72;;;2.53;;
17917;SDS011;9084;50.956;3.106;2023-07-20T06:55:18;2.65;;;2.35;;
17917;SDS011;9084;50.956;3.106;2023-07-20T06:57:46;3.03;;;2.83;;
17917;SDS011;9084;50.956;3.106;2023-07-20T07:00:12;2.97;;;2.60;;
17917;SDS011;9084;50.956;3.106;2023-07-20T07:02:40;2.38;;;2.15;;
17917;SDS011;9084;50.956;3.106;2023-07-20T07:05:06;2.20;;;2.00;;
17917;SDS011;9084;50.956;3.106;2023-07-20T07:07:34;2.85;;;2.65;;
17917;SDS011;9084;50.956;3.106;2023-07-20T07:10:00;3.50;;;2.28;;
17917;SDS011;9084;50.956;3.106;2023-07-20T07:12:29;3.08;;;2.78;;
17917;SDS011;9084;50.956;3.106;2023-07-20T07:14:59;2.53;;;2.33;;
17917;SDS011;9084;50.956;3.106;2023-07-20T07:17:25;2.67;;;2.47;;
17917;SDS011;9084;50.956;3.106;2023-07-20T07:19:53;3.95;;;3.10;;
17917;SDS011;9084;50.956;3.106;2023-07-20T07:22:21;2.55;;;2.10;;
17917;SDS011;9084;50.956;3.106;2023-07-20T07:24:47;2.30;;;2.20;;
17917;SDS011;9084;50.956;3.106;2023-07-20T07:27:13;2.08;;;1.98;;
17917;SDS011;9084;50.956;3.106;2023-07-20T07:29:41;2.40;;;2.30;;
17917;SDS011;9084;50.956;3.106;2023-07-20T07:32:09;3.35;;;2.45;;
17917;SDS011;9084;50.956;3.106;2023-07-20T07:34:37;3.22;;;2.50;;
17917;SDS011;9084;50.956;3.106;2023-07-20T07:37:06;1.90;;;1.80;;
17917;SDS011;9084;50.956;3.106;2023-07-20T07:39:34;2.38;;;2.17;;
17917;SDS011;9084;50.956;3.106;2023-07-20T07:42:02;1.80;;;1.70;;
17917;SDS011;9084;50.956;3.106;2023-07-20T07:44:30;1.90;;;1.73;;
17917;SDS011;9084;50.956;3.106;2023-07-20T07:46:58;1.98;;;1.88;;
17917;SDS011;9084;50.956;3.106;2023-07-20T07:49:24;1.40;;;1.30;;
17917;SDS011;9084;50.956;3.106;2023-07-20T07:51:50;2.65;;;2.20;;
17917;SDS011;9084;50.956;3.106;2023-07-20T07:54:20;2.13;;;1.80;;
17917;SDS011;9084;50.956;3.106;2023-07-20T07:56:45;2.33;;;1.80;;
17917;SDS011;9084;50.956;3.106;2023-07-20T07:59:13;1.65;;;1.50;;
17917;SDS011;9084;50.956;3.106;2023-07-20T08:01:41;1.15;;;1.05;;
17917;SDS011;9084;50.956;3.106;2023-07-20T08:04:07;2.13;;;1.90;;
17917;SDS011;9084;50.956;3.106;2023-07-20T08:06:35;1.70;;;1.60;;
17917;SDS011;9084;50.956;3.106;2023-07-20T08:09:00;3.10;;;1.40;;
17917;SDS011;9084;50.956;3.106;2023-07-20T08:11:27;1.52;;;1.42;;
17917;SDS011;9084;50.956;3.106;2023-07-20T08:13:55;1.50;;;1.35;;
17917;SDS011;9084;50.956;3.106;2023-07-20T08:16:21;3.13;;;2.10;;
17917;SDS011;9084;50.956;3.106;2023-07-20T08:18:47;2.38;;;1.58;;
17917;SDS011;9084;50.956;3.106;2023-07-20T08:21:18;1.52;;;1.42;;
17917;SDS011;9084;50.956;3.106;2023-07-20T08:23:43;2.17;;;1.30;;
17917;SDS011;9084;50.956;3.106;2023-07-20T08:26:09;1.98;;;1.63;;
17917;SDS011;9084;50.956;3.106;2023-07-20T08:28:37;1.58;;;1.48;;
17917;SDS011;9084;50.956;3.106;2023-07-20T08:31:06;1.65;;;1.55;;
17917;SDS011;9084;50.956;3.106;2023-07-20T08:33:32;1.67;;;1.58;;
17917;SDS011;9084;50.956;3.106;2023-07-20T08:36:00;1.50;;;1.40;;
17917;SDS011;9084;50.956;3.106;2023-07-20T08:38:29;1.38;;;1.27;;
17917;SDS011;9084;50.956;3.106;2023-07-20T08:40:54;0.90;;;0.90;;
17917;SDS011;9084;50.956;3.106;2023-07-20T08:43:20;1.40;;;0.98;;
17917;SDS011;9084;50.956;3.106;2023-07-20T08:45:51;2.45;;;1.73;;
17917;SDS011;9084;50.956;3.106;2023-07-20T08:48:19;1.20;;;1.10;;
17917;SDS011;9084;50.956;3.106;2023-07-20T08:50:52;1.60;;;1.50;;
17917;SDS011;9084;50.956;3.106;2023-07-20T08:53:24;2.25;;;1.55;;
17917;SDS011;9084;50.956;3.106;2023-07-20T08:55:50;1.67;;;1.30;;
17917;SDS011;9084;50.956;3.106;2023-07-20T08:58:18;1.17;;;1.08;;
17917;SDS011;9084;50.956;3.106;2023-07-20T09:00:45;1.52;;;1.40;;
17917;SDS011;9084;50.956;3.106;2023-07-20T09:03:15;1.80;;;1.35;;
17917;SDS011;9084;50.956;3.106;2023-07-20T09:05:41;1.98;;;1.55;;
17917;SDS011;9084;50.956;3.106;2023-07-20T09:08:07;2.10;;;1.58;;
17917;SDS011;9084;50.956;3.106;2023-07-20T09:10:32;2.65;;;1.50;;
17917;SDS011;9084;50.956;3.106;2023-07-20T09:12:58;1.60;;;1.27;;
17917;SDS011;9084;50.956;3.106;2023-07-20T09:15:28;2.00;;;1.30;;
17917;SDS011;9084;50.956;3.106;2023-07-20T09:17:54;1.20;;;1.10;;
17917;SDS011;9084;50.956;3.106;2023-07-20T09:20:20;1.42;;;1.33;;
17917;SDS011;9084;50.956;3.106;2023-07-20T09:22:48;1.48;;;1.38;;
17917;SDS011;9084;50.956;3.106;2023-07-20T09:25:16;1.17;;;1.00;;
17917;SDS011;9084;50.956;3.106;2023-07-20T09:27:44;1.30;;;1.10;;
17917;SDS011;9084;50.956;3.106;2023-07-20T09:30:11;4.50;;;2.22;;
17917;SDS011;9084;50.956;3.106;2023-07-20T09:32:48;1.65;;;1.52;;
17917;SDS011;9084;50.956;3.106;2023-07-20T09:35:16;1.98;;;1.85;;
17917;SDS011;9084;50.956;3.106;2023-07-20T09:37:46;1.38;;;1.27;;
17917;SDS011;9084;50.956;3.106;2023-07-20T09:40:17;1.50;;;1.25;;
17917;SDS011;9084;50.956;3.106;2023-07-20T09:42:45;1.50;;;1.40;;
17917;SDS011;9084;50.956;3.106;2023-07-20T09:45:11;1.33;;;1.20;;
17917;SDS011;9084;50.956;3.106;2023-07-20T09:47:39;1.30;;;1.20;;
17917;SDS011;9084;50.956;3.106;2023-07-20T09:50:08;1.02;;;1.02;;
17917;SDS011;9084;50.956;3.106;2023-07-20T09:52:37;1.77;;;1.30;;
17917;SDS011;9084;50.956;3.106;2023-07-20T09:55:05;1.35;;;0.93;;
17917;SDS011;9084;50.956;3.106;2023-07-20T09:57:37;2.35;;;1.60;;
17917;SDS011;9084;50.956;3.106;2023-07-20T10:00:04;1.60;;;1.50;;
17917;SDS011;9084;50.956;3.106;2023-07-20T10:02:41;2.05;;;1.70;;
17917;SDS011;9084;50.956;3.106;2023-07-20T10:05:13;1.05;;;1.02;;
17917;SDS011;9084;50.956;3.106;2023-07-20T10:07:49;1.05;;;1.00;;
17917;SDS011;9084;50.956;3.106;2023-07-20T10:10:17;1.25;;;1.15;;
17917;SDS011;9084;50.956;3.106;2023-07-20T10:12:44;1.50;;;1.25;;
17917;SDS011;9084;50.956;3.106;2023-07-20T10:15:24;2.20;;;1.70;;
17917;SDS011;9084;50.956;3.106;2023-07-20T10:18:02;2.78;;;1.80;;
17917;SDS011;9084;50.956;3.106;2023-07-20T10:20:33;2.03;;;1.83;;
17917;SDS011;9084;50.956;3.106;2023-07-20T10:23:01;1.95;;;1.85;;
17917;SDS011;9084;50.956;3.106;2023-07-20T10:25:29;2.80;;;2.60;;
17917;SDS011;9084;50.956;3.106;2023-07-20T10:27:58;5.30;;;3.10;;
17917;SDS011;9084;50.956;3.106;2023-07-20T10:30:25;3.00;;;2.80;;
17917;SDS011;9084;50.956;3.106;2023-07-20T10:32:56;3.85;;;3.30;;
17917;SDS011;9084;50.956;3.106;2023-07-20T10:35:21;5.03;;;3.58;;
17917;SDS011;9084;50.956;3.106;2023-07-20T10:37:48;5.20;;;4.00;;
17917;SDS011;9084;50.956;3.106;2023-07-20T10:40:24;3.97;;;3.67;;
17917;SDS011;9084;50.956;3.106;2023-07-20T10:42:50;3.70;;;3.40;;
17917;SDS011;9084;50.956;3.106;2023-07-20T10:45:18;3.67;;;3.38;;
17917;SDS011;9084;50.956;3.106;2023-07-20T10:47:46;3.97;;;3.67;;
17917;SDS011;9084;50.956;3.106;2023-07-20T10:50:12;3.55;;;3.35;;
17917;SDS011;9084;50.956;3.106;2023-07-20T10:52:39;3.83;;;3.38;;
17917;SDS011;9084;50.956;3.106;2023-07-20T10:55:15;3.17;;;2.97;;
17917;SDS011;9084;50.956;3.106;2023-07-20T10:57:41;3.08;;;2.78;;
17917;SDS011;9084;50.956;3.106;2023-07-20T11:00:08;3.75;;;3.45;;
17917;SDS011;9084;50.956;3.106;2023-07-20T11:02:46;3.45;;;3.15;;
17917;SDS011;9084;50.956;3.106;2023-07-20T11:08:02;2.63;;;2.42;;
17917;SDS011;9084;50.956;3.106;2023-07-20T11:10:29;2.85;;;2.60;;
17917;SDS011;9084;50.956;3.106;2023-07-20T11:18:27;3.20;;;2.58;;
17917;SDS011;9084;50.956;3.106;2023-07-20T11:20:53;1.42;;;1.33;;
17917;SDS011;9084;50.956;3.106;2023-07-20T11:23:21;2.38;;;2.15;;
17917;SDS011;9084;50.956;3.106;2023-07-20T11:25:49;1.92;;;1.83;;
17917;SDS011;9084;50.956;3.106;2023-07-20T11:28:15;2.80;;;2.15;;
17917;SDS011;9084;50.956;3.106;2023-07-20T11:30:42;1.58;;;1.38;;
17917;SDS011;9084;50.956;3.106;2023-07-20T11:33:10;1.38;;;1.27;;
17917;SDS011;9084;50.956;3.106;2023-07-20T11:35:45;2.00;;;1.90;;
17917;SDS011;9084;50.956;3.106;2023-07-20T11:38:12;2.55;;;2.00;;
17917;SDS011;9084;50.956;3.106;2023-07-20T11:40:45;1.95;;;1.85;;
17917;SDS011;9084;50.956;3.106;2023-07-20T11:43:14;2.83;;;2.13;;
17917;SDS011;9084;50.956;3.106;2023-07-20T11:45:43;2.42;;;1.90;;
17917;SDS011;9084;50.956;3.106;2023-07-20T11:48:16;2.40;;;2.20;;
17917;SDS011;9084;50.956;3.106;2023-07-20T11:50:42;2.15;;;2.05;;
17917;SDS011;9084;50.956;3.106;2023-07-20T11:53:08;2.40;;;1.77;;
17917;SDS011;9084;50.956;3.106;2023-07-20T11:55:36;4.15;;;2.30;;
17917;SDS011;9084;50.956;3.106;2023-07-20T11:58:04;2.47;;;2.33;;
17917;SDS011;9084;50.956;3.106;2023-07-20T12:00:32;2.58;;;2.40;;
17917;SDS011;9084;50.956;3.106;2023-07-20T12:03:01;2.83;;;2.63;;
17917;SDS011;9084;50.956;3.106;2023-07-20T12:05:31;3.75;;;2.70;;
17917;SDS011;9084;50.956;3.106;2023-07-20T12:07:57;4.90;;;2.80;;
17917;SDS011;9084;50.956;3.106;2023-07-20T12:10:27;2.50;;;2.30;;
17917;SDS011;9084;50.956;3.106;2023-07-20T12:12:53;2.42;;;2.22;;
17917;SDS011;9084;50.956;3.106;2023-07-20T12:17:51;3.20;;;2.90;;
17917;SDS011;9084;50.956;3.106;2023-07-20T12:23:03;2.30;;;2.15;;
17917;SDS011;9084;50.956;3.106;2023-07-20T12:25:48;2.60;;;2.40;;
17917;SDS011;9084;50.956;3.106;2023-07-20T12:28:17;2.97;;;2.65;;
17917;SDS011;9084;50.956;3.106;2023-07-20T12:30:44;4.35;;;2.45;;
17917;SDS011;9084;50.956;3.106;2023-07-20T12:33:21;3.15;;;2.88;;
17917;SDS011;9084;50.956;3.106;2023-07-20T12:35:49;4.50;;;3.70;;
17917;SDS011;9084;50.956;3.106;2023-07-20T12:38:18;4.07;;;3.78;;
17917;SDS011;9084;50.956;3.106;2023-07-20T12:40:44;7.80;;;6.70;;
17917;SDS011;9084;50.956;3.106;2023-07-20T12:43:09;7.75;;;6.55;;
17917;SDS011;9084;50.956;3.106;2023-07-20T12:45:35;8.52;;;7.68;;
17917;SDS011;9084;50.956;3.106;2023-07-20T12:48:01;9.93;;;8.25;;
17917;SDS011;9084;50.956;3.106;2023-07-20T12:50:26;9.75;;;8.88;;
17917;SDS011;9084;50.956;3.106;2023-07-20T12:52:52;8.77;;;8.07;;
17917;SDS011;9084;50.956;3.106;2023-07-20T12:55:18;9.18;;;8.48;;
17917;SDS011;9084;50.956;3.106;2023-07-20T12:57:46;9.45;;;8.73;;
17917;SDS011;9084;50.956;3.106;2023-07-20T13:00:14;10.10;;;9.35;;
17917;SDS011;9084;50.956;3.106;2023-07-20T13:02:42;9.18;;;8.52;;
17917;SDS011;9084;50.956;3.106;2023-07-20T13:05:08;9.82;;;9.13;;
17917;SDS011;9084;50.956;3.106;2023-07-20T13:07:37;9.63;;;8.75;;
17917;SDS011;9084;50.956;3.106;2023-07-20T13:10:04;11.10;;;10.20;;
17917;SDS011;9084;50.956;3.106;2023-07-20T13:12:33;9.32;;;8.65;;
17917;SDS011;9084;50.956;3.106;2023-07-20T13:15:01;9.70;;;9.00;;
17917;SDS011;9084;50.956;3.106;2023-07-20T13:17:33;9.25;;;8.50;;
17917;SDS011;9084;50.956;3.106;2023-07-20T13:20:05;11.13;;;10.30;;
17917;SDS011;9084;50.956;3.106;2023-07-20T13:22:35;10.75;;;9.95;;
17917;SDS011;9084;50.956;3.106;2023-07-20T13:25:02;8.40;;;7.80;;
17917;SDS011;9084;50.956;3.106;2023-07-20T13:27:28;8.77;;;8.07;;
17917;SDS011;9084;50.956;3.106;2023-07-20T13:29:55;8.50;;;7.93;;
17917;SDS011;9084;50.956;3.106;2023-07-20T13:32:25;8.80;;;8.10;;
17917;SDS011;9084;50.956;3.106;2023-07-20T13:34:51;9.18;;;8.48;;
17917;SDS011;9084;50.956;3.106;2023-07-20T13:37:17;10.55;;;9.88;;
17917;SDS011;9084;50.956;3.106;2023-07-20T13:39:44;10.93;;;10.13;;
17917;SDS011;9084;50.956;3.106;2023-07-20T13:42:10;10.60;;;9.90;;
17917;SDS011;9084;50.956;3.106;2023-07-20T13:44:37;11.07;;;10.27;;
17917;SDS011;9084;50.956;3.106;2023-07-20T13:47:03;11.23;;;10.32;;
17917;SDS011;9084;50.956;3.106;2023-07-20T13:49:32;10.07;;;9.48;;
17917;SDS011;9084;50.956;3.106;2023-07-20T13:51:58;9.77;;;9.10;;
17917;SDS011;9084;50.956;3.106;2023-07-20T13:54:28;9.20;;;8.60;;
17917;SDS011;9084;50.956;3.106;2023-07-20T13:56:59;8.40;;;7.80;;
17917;SDS011;9084;50.956;3.106;2023-07-20T13:59:27;8.48;;;7.88;;
17917;SDS011;9084;50.956;3.106;2023-07-20T14:01:53;7.68;;;7.18;;
17917;SDS011;9084;50.956;3.106;2023-07-20T14:04:21;7.63;;;7.20;;
17917;SDS011;9084;50.956;3.106;2023-07-20T14:06:47;5.55;;;5.22;;
17917;SDS011;9084;50.956;3.106;2023-07-20T14:09:12;6.05;;;5.55;;
17917;SDS011;9084;50.956;3.106;2023-07-20T14:11:38;5.43;;;5.03;;
17917;SDS011;9084;50.956;3.106;2023-07-20T14:14:04;5.78;;;5.15;;
17917;SDS011;9084;50.956;3.106;2023-07-20T14:16:29;5.45;;;5.05;;
17917;SDS011;9084;50.956;3.106;2023-07-20T14:18:59;5.32;;;5.03;;
17917;SDS011;9084;50.956;3.106;2023-07-20T14:21:25;4.95;;;4.65;;
17917;SDS011;9084;50.956;3.106;2023-07-20T14:23:51;5.60;;;5.20;;
17917;SDS011;9084;50.956;3.106;2023-07-20T14:26:20;5.43;;;5.03;;
17917;SDS011;9084;50.956;3.106;2023-07-20T14:28:48;5.60;;;5.28;;
17917;SDS011;9084;50.956;3.106;2023-07-20T14:31:14;5.63;;;5.22;;
17917;SDS011;9084;50.956;3.106;2023-07-20T14:33:42;5.47;;;5.00;;
17917;SDS011;9084;50.956;3.106;2023-07-20T14:36:13;5.13;;;4.80;;
17917;SDS011;9084;50.956;3.106;2023-07-20T14:38:38;5.60;;;5.15;;
17917;SDS011;9084;50.956;3.106;2023-07-20T14:41:07;5.32;;;4.90;;
17917;SDS011;9084;50.956;3.106;2023-07-20T14:43:33;5.32;;;4.93;;
17917;SDS011;9084;50.956;3.106;2023-07-20T14:46:01;4.30;;;4.05;;
17917;SDS011;9084;50.956;3.106;2023-07-20T14:48:29;4.60;;;4.30;;
17917;SDS011;9084;50.956;3.106;2023-07-20T14:50:55;4.07;;;3.72;;
17917;SDS011;9084;50.956;3.106;2023-07-20T14:53:23;4.60;;;4.30;;
17917;SDS011;9084;50.956;3.106;2023-07-20T14:55:53;3.63;;;3.42;;
17917;SDS011;9084;50.956;3.106;2023-07-20T14:58:26;3.83;;;3.58;;
17917;SDS011;9084;50.956;3.106;2023-07-20T15:00:55;3.90;;;3.65;;
17917;SDS011;9084;50.956;3.106;2023-07-20T15:03:20;4.05;;;3.50;;
17917;SDS011;9084;50.956;3.106;2023-07-20T15:05:46;3.72;;;3.53;;
17917;SDS011;9084;50.956;3.106;2023-07-20T15:08:18;3.60;;;3.40;;
17917;SDS011;9084;50.956;3.106;2023-07-20T15:10:44;3.45;;;3.25;;
17917;SDS011;9084;50.956;3.106;2023-07-20T15:13:15;5.47;;;3.40;;
17917;SDS011;9084;50.956;3.106;2023-07-20T15:15:40;4.05;;;3.75;;
17917;SDS011;9084;50.956;3.106;2023-07-20T15:18:08;3.10;;;2.90;;
17917;SDS011;9084;50.956;3.106;2023-07-20T15:20:35;3.88;;;3.67;;
17917;SDS011;9084;50.956;3.106;2023-07-20T15:23:01;3.85;;;3.65;;
17917;SDS011;9084;50.956;3.106;2023-07-20T15:25:27;3.65;;;3.45;;
17917;SDS011;9084;50.956;3.106;2023-07-20T15:27:53;3.72;;;3.42;;
17917;SDS011;9084;50.956;3.106;2023-07-20T15:30:24;3.70;;;3.40;;
17917;SDS011;9084;50.956;3.106;2023-07-20T15:32:49;2.92;;;2.72;;